createdAt,value
2017-11-17T00:00:59.546Z,0
2017-11-17T00:02:00.947Z,0
2017-11-17T00:03:02.344Z,0
2017-11-17T00:04:03.750Z,0
2017-11-17T00:05:05.145Z,0
2017-11-17T00:06:06.542Z,0
2017-11-17T00:07:07.945Z,0
2017-11-17T00:08:09.342Z,0
2017-11-17T00:09:10.759Z,0
2017-11-17T00:10:12.146Z,0
2017-11-17T00:11:13.546Z,0
2017-11-17T00:12:14.949Z,0
2017-11-17T00:13:16.343Z,0
2017-11-17T00:14:17.749Z,0
2017-11-17T00:15:19.150Z,0
2017-11-17T00:16:20.564Z,0
2017-11-17T00:17:21.970Z,0
2017-11-17T00:18:23.366Z,0
2017-11-17T00:19:24.774Z,0
2017-11-17T00:20:26.181Z,0
2017-11-17T00:21:27.588Z,0
2017-11-17T00:22:28.989Z,0
2017-11-17T00:23:30.392Z,0
2017-11-17T00:24:31.787Z,0
2017-11-17T00:25:33.186Z,0
2017-11-17T00:26:34.608Z,0
2017-11-17T00:27:36.004Z,0
2017-11-17T00:28:37.403Z,0
2017-11-17T00:29:38.802Z,0
2017-11-17T00:30:40.209Z,0
2017-11-17T00:31:41.618Z,0
2017-11-17T00:32:43.022Z,0
2017-11-17T00:33:44.435Z,0
2017-11-17T00:34:45.829Z,0
2017-11-17T00:35:47.247Z,0
2017-11-17T00:36:48.651Z,0
2017-11-17T00:37:50.053Z,0
2017-11-17T00:38:51.450Z,0
2017-11-17T00:39:52.858Z,0
2017-11-17T00:40:54.247Z,0
2017-11-17T00:41:55.657Z,0
2017-11-17T00:42:57.064Z,0
2017-11-17T00:43:58.473Z,0
2017-11-17T00:44:59.871Z,0
2017-11-17T00:46:01.272Z,0
2017-11-17T00:47:02.664Z,0
2017-11-17T00:48:04.080Z,0
2017-11-17T00:49:05.482Z,0
2017-11-17T00:50:06.887Z,0
2017-11-17T00:51:08.288Z,0
2017-11-17T00:52:09.682Z,0
2017-11-17T00:53:11.086Z,0
2017-11-17T00:54:12.486Z,0
2017-11-17T00:55:13.876Z,0
2017-11-17T00:56:15.273Z,0
2017-11-17T00:57:16.681Z,0
2017-11-17T00:58:18.079Z,0
2017-11-17T00:59:19.478Z,0
2017-11-17T01:00:20.869Z,0
2017-11-17T01:01:22.267Z,0
2017-11-17T01:02:23.669Z,0
2017-11-17T01:03:25.072Z,0
2017-11-17T01:04:26.471Z,0
2017-11-17T01:05:27.869Z,0
2017-11-17T01:06:29.276Z,0
2017-11-17T01:07:30.665Z,0
2017-11-17T01:08:32.060Z,0
2017-11-17T01:09:33.459Z,0
2017-11-17T01:10:34.862Z,0
2017-11-17T01:11:36.265Z,0
2017-11-17T01:12:37.673Z,0
2017-11-17T01:13:39.062Z,0
2017-11-17T01:14:40.459Z,0
2017-11-17T01:15:41.853Z,0
2017-11-17T01:16:43.248Z,0
2017-11-17T01:17:44.643Z,0
2017-11-17T01:18:46.049Z,0
2017-11-17T01:19:47.446Z,0
2017-11-17T01:20:48.862Z,0
2017-11-17T01:21:50.256Z,0
2017-11-17T01:22:51.657Z,0
2017-11-17T01:23:53.056Z,0
2017-11-17T01:24:54.455Z,0
2017-11-17T01:25:55.847Z,0
2017-11-17T01:26:57.248Z,0
2017-11-17T01:27:58.640Z,0
2017-11-17T01:29:00.032Z,0
2017-11-17T01:30:01.437Z,0
2017-11-17T01:31:02.830Z,0
2017-11-17T01:32:04.228Z,0
2017-11-17T01:33:05.629Z,0
2017-11-17T01:34:07.028Z,0
2017-11-17T01:35:08.416Z,0
2017-11-17T01:36:09.817Z,0
2017-11-17T01:37:11.218Z,0
2017-11-17T01:38:12.615Z,0
2017-11-17T01:39:14.020Z,0
2017-11-17T01:40:15.419Z,0
2017-11-17T01:41:16.815Z,0
2017-11-17T01:42:18.215Z,0
2017-11-17T01:43:19.612Z,0
2017-11-17T01:44:21.012Z,0
2017-11-17T01:45:22.407Z,0
2017-11-17T01:46:23.814Z,0
2017-11-17T01:47:25.211Z,0
2017-11-17T01:48:26.608Z,0
2017-11-17T01:49:28.006Z,0
2017-11-17T01:50:29.397Z,0
2017-11-17T01:51:30.799Z,0
2017-11-17T01:52:32.203Z,0
2017-11-17T01:53:33.610Z,0
2017-11-17T01:54:35.004Z,0
2017-11-17T01:55:36.401Z,0
2017-11-17T01:56:37.801Z,0
2017-11-17T01:57:39.188Z,0
2017-11-17T01:58:40.586Z,0
2017-11-17T01:59:41.979Z,0
2017-11-17T02:00:43.381Z,0
2017-11-17T02:01:44.800Z,0
2017-11-17T02:02:46.194Z,0
2017-11-17T02:03:47.603Z,0
2017-11-17T02:04:49.370Z,0
2017-11-17T02:05:50.769Z,0
2017-11-17T02:06:52.170Z,0
2017-11-17T02:07:53.563Z,0
2017-11-17T02:08:54.968Z,0
2017-11-17T02:09:56.366Z,0
2017-11-17T02:10:57.768Z,0
2017-11-17T02:11:59.158Z,0
2017-11-17T02:13:00.556Z,0
2017-11-17T02:14:01.961Z,0
2017-11-17T02:15:03.375Z,0
2017-11-17T02:16:04.776Z,0
2017-11-17T02:17:06.194Z,0
2017-11-17T02:18:07.606Z,0
2017-11-17T02:19:09.008Z,0
2017-11-17T02:20:10.406Z,0
2017-11-17T02:21:11.800Z,0
2017-11-17T02:22:13.199Z,0
2017-11-17T02:23:14.607Z,0
2017-11-17T02:24:16.008Z,0
2017-11-17T02:25:17.412Z,0
2017-11-17T02:26:18.811Z,0
2017-11-17T02:27:20.205Z,0
2017-11-17T02:28:21.603Z,0
2017-11-17T02:29:22.996Z,0
2017-11-17T02:30:24.404Z,0
2017-11-17T02:31:25.792Z,0
2017-11-17T02:32:27.188Z,0
2017-11-17T02:33:28.587Z,0
2017-11-17T02:34:29.982Z,0
2017-11-17T02:35:31.387Z,0
2017-11-17T02:36:32.789Z,0
2017-11-17T02:37:34.198Z,0
2017-11-17T02:38:35.598Z,0
2017-11-17T02:39:37.000Z,0
2017-11-17T02:40:38.394Z,0
2017-11-17T02:41:39.790Z,0
2017-11-17T02:42:41.189Z,0
2017-11-17T02:43:42.584Z,0
2017-11-17T02:44:43.992Z,0
2017-11-17T02:45:45.408Z,0
2017-11-17T02:46:46.810Z,0
2017-11-17T02:47:48.209Z,0
2017-11-17T02:48:49.607Z,0
2017-11-17T02:49:51.002Z,0
2017-11-17T02:50:52.395Z,0
2017-11-17T02:51:53.792Z,0
2017-11-17T02:52:55.192Z,0
2017-11-17T02:53:56.609Z,0
2017-11-17T02:54:58.007Z,0
2017-11-17T02:55:59.400Z,0
2017-11-17T02:57:00.797Z,0
2017-11-17T02:58:02.193Z,0
2017-11-17T02:59:03.590Z,0
2017-11-17T03:00:05.002Z,0
2017-11-17T03:01:06.403Z,0
2017-11-17T03:02:07.805Z,0
2017-11-17T03:03:09.220Z,0
2017-11-17T03:04:10.602Z,0
2017-11-17T03:05:11.995Z,0
2017-11-17T03:06:13.403Z,0
2017-11-17T03:07:14.798Z,0
2017-11-17T03:08:16.200Z,0
2017-11-17T03:09:17.593Z,0
2017-11-17T03:10:18.990Z,0
2017-11-17T03:11:20.392Z,0
2017-11-17T03:12:21.783Z,0
2017-11-17T03:13:23.185Z,0
2017-11-17T03:14:24.578Z,0
2017-11-17T03:15:25.982Z,0
2017-11-17T03:16:27.376Z,0
2017-11-17T03:17:28.775Z,0
2017-11-17T03:18:30.194Z,0
2017-11-17T03:19:31.593Z,0
2017-11-17T03:20:32.986Z,0
2017-11-17T03:21:34.385Z,0
2017-11-17T03:22:35.778Z,0
2017-11-17T03:23:37.172Z,0
2017-11-17T03:24:38.572Z,0
2017-11-17T03:25:39.981Z,0
2017-11-17T03:26:41.659Z,0
2017-11-17T03:27:43.054Z,0
2017-11-17T03:28:44.488Z,0
2017-11-17T03:29:45.848Z,0
2017-11-17T03:30:47.272Z,0
2017-11-17T03:31:48.663Z,0
2017-11-17T03:32:50.062Z,0
2017-11-17T03:33:51.470Z,0
2017-11-17T03:34:52.861Z,0
2017-11-17T03:35:54.265Z,0
2017-11-17T03:36:55.668Z,0
2017-11-17T03:37:57.071Z,0
2017-11-17T03:38:58.464Z,0
2017-11-17T03:39:59.857Z,0
2017-11-17T03:41:01.254Z,0
2017-11-17T03:42:02.650Z,0
2017-11-17T03:43:04.059Z,0
2017-11-17T03:44:05.462Z,0
2017-11-17T03:45:06.854Z,0
2017-11-17T03:46:08.246Z,0
2017-11-17T03:47:09.640Z,0
2017-11-17T03:48:11.032Z,0
2017-11-17T03:49:12.442Z,0
2017-11-17T03:50:13.836Z,0
2017-11-17T03:51:15.249Z,0
2017-11-17T03:52:16.642Z,0
2017-11-17T03:53:18.049Z,0
2017-11-17T03:54:19.459Z,0
2017-11-17T03:55:20.867Z,0
2017-11-17T03:56:22.274Z,0
2017-11-17T03:57:23.669Z,0
2017-11-17T03:58:25.074Z,0
2017-11-17T03:59:26.464Z,0
2017-11-17T04:00:27.877Z,0
2017-11-17T04:01:29.263Z,0
2017-11-17T04:02:30.678Z,0
2017-11-17T04:03:32.058Z,0
2017-11-17T04:04:33.455Z,0
2017-11-17T04:05:34.855Z,0
2017-11-17T04:06:36.253Z,0
2017-11-17T04:07:37.659Z,0
2017-11-17T04:08:39.079Z,0
2017-11-17T04:09:40.460Z,0
2017-11-17T04:10:41.857Z,0
2017-11-17T04:11:43.249Z,0
2017-11-17T04:12:44.648Z,0
2017-11-17T04:13:46.047Z,0
2017-11-17T04:14:47.450Z,0
2017-11-17T04:15:48.835Z,0
2017-11-17T04:16:50.235Z,0
2017-11-17T04:17:51.628Z,0
2017-11-17T04:18:53.040Z,0
2017-11-17T04:19:54.455Z,0
2017-11-17T04:20:55.839Z,0
2017-11-17T04:21:57.233Z,0
2017-11-17T04:22:58.628Z,0
2017-11-17T04:24:00.052Z,0
2017-11-17T04:25:01.447Z,0
2017-11-17T04:26:02.843Z,0
2017-11-17T04:27:04.238Z,0
2017-11-17T04:28:05.632Z,0
2017-11-17T04:29:07.028Z,0
2017-11-17T04:30:08.420Z,0
2017-11-17T04:31:09.819Z,0
2017-11-17T04:32:11.211Z,0
2017-11-17T04:33:12.605Z,0
2017-11-17T04:34:14.001Z,0
2017-11-17T04:35:15.394Z,0
2017-11-17T04:36:16.803Z,0
2017-11-17T04:37:18.196Z,0
2017-11-17T04:38:19.594Z,0
2017-11-17T04:39:21.024Z,0
2017-11-17T04:40:22.425Z,0
2017-11-17T04:41:23.820Z,0
2017-11-17T04:42:25.217Z,0
2017-11-17T04:43:26.610Z,0
2017-11-17T04:44:28.006Z,0
2017-11-17T04:45:29.408Z,0
2017-11-17T04:46:30.802Z,0
2017-11-17T04:47:32.205Z,0
2017-11-17T04:48:33.598Z,0
2017-11-17T04:49:34.990Z,0
2017-11-17T04:50:36.391Z,0
2017-11-17T04:51:37.790Z,0
2017-11-17T04:52:39.184Z,0
2017-11-17T04:53:40.604Z,0
2017-11-17T04:54:41.988Z,0
2017-11-17T04:55:43.397Z,0
2017-11-17T04:56:44.792Z,0
2017-11-17T04:57:46.181Z,0
2017-11-17T04:58:47.574Z,0
2017-11-17T04:59:48.986Z,0
2017-11-17T05:00:50.365Z,0
2017-11-17T05:01:51.767Z,0
2017-11-17T05:02:53.165Z,0
2017-11-17T05:03:54.559Z,0
2017-11-17T05:04:56.038Z,0
2017-11-17T05:05:57.437Z,0
2017-11-17T05:06:58.862Z,0
2017-11-17T05:08:00.265Z,0
2017-11-17T05:09:01.664Z,0
2017-11-17T05:10:03.087Z,0
2017-11-17T05:11:04.486Z,0
2017-11-17T05:12:05.882Z,0
2017-11-17T05:13:07.289Z,0
2017-11-17T05:14:08.681Z,0
2017-11-17T05:15:10.081Z,0
2017-11-17T05:16:11.484Z,0
2017-11-17T05:17:12.883Z,0
2017-11-17T05:18:14.275Z,0
2017-11-17T05:19:15.666Z,0
2017-11-17T05:20:17.063Z,0
2017-11-17T05:21:18.469Z,0
2017-11-17T05:22:19.863Z,0
2017-11-17T05:23:21.279Z,0
2017-11-17T05:24:22.676Z,0
2017-11-17T05:25:24.068Z,0
2017-11-17T05:26:25.458Z,0
2017-11-17T05:27:26.860Z,0
2017-11-17T05:28:28.261Z,0
2017-11-17T05:29:29.656Z,0
2017-11-17T05:30:31.074Z,0
2017-11-17T05:31:32.455Z,0
2017-11-17T05:32:33.852Z,0
2017-11-17T05:33:35.254Z,0
2017-11-17T05:34:36.644Z,0
2017-11-17T05:35:38.037Z,0
2017-11-17T05:36:39.434Z,0
2017-11-17T05:37:40.841Z,0
2017-11-17T05:38:42.222Z,0
2017-11-17T05:39:43.631Z,0
2017-11-17T05:40:45.030Z,0
2017-11-17T05:41:46.455Z,0
2017-11-17T05:42:47.970Z,0
2017-11-17T05:43:49.370Z,0
2017-11-17T05:44:50.777Z,0
2017-11-17T05:45:52.170Z,0
2017-11-17T05:46:53.583Z,0
2017-11-17T05:47:54.977Z,0
2017-11-17T05:48:56.734Z,0
2017-11-17T05:49:58.141Z,0
2017-11-17T05:50:59.534Z,0
2017-11-17T05:52:00.956Z,0
2017-11-17T05:53:02.353Z,0
2017-11-17T05:54:03.750Z,0
2017-11-17T05:55:05.141Z,0
2017-11-17T05:56:06.536Z,0
2017-11-17T05:57:07.927Z,0
2017-11-17T05:58:09.331Z,0
2017-11-17T05:59:10.725Z,0
2017-11-17T06:00:12.122Z,0
2017-11-17T06:01:13.665Z,0
2017-11-17T06:02:15.068Z,0
2017-11-17T06:03:16.719Z,0
2017-11-17T06:04:18.111Z,0
2017-11-17T06:05:19.503Z,0
2017-11-17T06:06:20.897Z,0
2017-11-17T06:07:22.322Z,0
2017-11-17T06:08:23.745Z,0
2017-11-17T06:09:25.102Z,0
2017-11-17T06:10:26.526Z,0
2017-11-17T06:11:27.900Z,0
2017-11-17T06:12:29.294Z,0
2017-11-17T06:13:30.708Z,0
2017-11-17T06:14:32.112Z,0
2017-11-17T06:15:33.512Z,0
2017-11-17T06:16:34.913Z,0
2017-11-17T06:17:36.311Z,0
2017-11-17T06:18:37.703Z,0
2017-11-17T06:19:39.105Z,0
2017-11-17T06:20:40.501Z,0
2017-11-17T06:21:41.913Z,0
2017-11-17T06:22:43.313Z,0
2017-11-17T06:23:44.713Z,0
2017-11-17T06:24:46.115Z,0
2017-11-17T06:25:47.524Z,0
2017-11-17T06:26:48.936Z,0
2017-11-17T06:27:50.331Z,0
2017-11-17T06:28:51.731Z,0
2017-11-17T06:29:53.117Z,0
2017-11-17T06:30:54.524Z,0
2017-11-17T06:31:55.909Z,4
2017-11-17T06:32:57.309Z,4
2017-11-17T06:33:58.783Z,4
2017-11-17T06:35:00.234Z,4
2017-11-17T06:36:01.628Z,4
2017-11-17T06:37:03.048Z,4
2017-11-17T06:38:04.445Z,4
2017-11-17T06:39:05.852Z,4
2017-11-17T06:40:07.241Z,8
2017-11-17T06:41:08.634Z,8
2017-11-17T06:42:10.030Z,12
2017-11-17T06:43:11.426Z,12
2017-11-17T06:44:12.829Z,12
2017-11-17T06:45:14.221Z,16
2017-11-17T06:46:15.641Z,20
2017-11-17T06:47:17.067Z,20
2017-11-17T06:48:18.446Z,24
2017-11-17T06:49:20.008Z,28
2017-11-17T06:50:21.400Z,32
2017-11-17T06:51:22.794Z,32
2017-11-17T06:52:24.189Z,40
2017-11-17T06:53:25.585Z,40
2017-11-17T06:54:26.999Z,44
2017-11-17T06:55:28.393Z,52
2017-11-17T06:56:29.820Z,52
2017-11-17T06:57:31.240Z,56
2017-11-17T06:58:32.634Z,60
2017-11-17T06:59:34.056Z,68
2017-11-17T07:00:35.455Z,72
2017-11-17T07:01:36.847Z,76
2017-11-17T07:02:38.283Z,84
2017-11-17T07:03:39.680Z,88
2017-11-17T07:04:41.073Z,92
2017-11-17T07:05:42.469Z,100
2017-11-17T07:06:43.877Z,108
2017-11-17T07:07:45.275Z,112
2017-11-17T07:08:46.671Z,120
2017-11-17T07:09:48.109Z,124
2017-11-17T07:10:49.718Z,132
2017-11-17T07:11:51.129Z,136
2017-11-17T07:12:52.521Z,148
2017-11-17T07:13:53.956Z,152
2017-11-17T07:14:55.365Z,160
2017-11-17T07:15:56.765Z,164
2017-11-17T07:16:58.163Z,172
2017-11-17T07:17:59.565Z,180
2017-11-17T07:19:00.967Z,188
2017-11-17T07:20:02.363Z,188
2017-11-17T07:21:03.762Z,196
2017-11-17T07:22:05.151Z,204
2017-11-17T07:23:06.548Z,212
2017-11-17T07:24:08.004Z,220
2017-11-17T07:25:09.401Z,228
2017-11-17T07:26:10.839Z,232
2017-11-17T07:27:12.252Z,236
2017-11-17T07:28:13.657Z,244
2017-11-17T07:29:15.109Z,252
2017-11-17T07:30:16.505Z,260
2017-11-17T07:31:17.905Z,268
2017-11-17T07:32:19.300Z,272
2017-11-17T07:33:20.699Z,280
2017-11-17T07:34:22.106Z,288
2017-11-17T07:35:23.504Z,292
2017-11-17T07:36:24.902Z,300
2017-11-17T07:37:26.305Z,308
2017-11-17T07:38:27.710Z,312
2017-11-17T07:39:29.108Z,320
2017-11-17T07:40:30.505Z,328
2017-11-17T07:41:31.911Z,332
2017-11-17T07:42:33.317Z,336
2017-11-17T07:43:34.712Z,344
2017-11-17T07:44:36.113Z,352
2017-11-17T07:45:37.574Z,352
2017-11-17T07:46:38.973Z,356
2017-11-17T07:47:40.370Z,364
2017-11-17T07:48:41.768Z,368
2017-11-17T07:49:43.178Z,372
2017-11-17T07:50:44.574Z,380
2017-11-17T07:51:45.965Z,388
2017-11-17T07:52:47.369Z,392
2017-11-17T07:53:48.776Z,400
2017-11-17T07:54:50.174Z,404
2017-11-17T07:55:51.572Z,408
2017-11-17T07:56:52.971Z,416
2017-11-17T07:57:54.364Z,416
2017-11-17T07:58:55.770Z,420
2017-11-17T07:59:57.171Z,424
2017-11-17T08:00:58.588Z,428
2017-11-17T08:01:59.989Z,436
2017-11-17T08:03:01.402Z,444
2017-11-17T08:04:02.778Z,444
2017-11-17T08:05:04.177Z,452
2017-11-17T08:06:05.591Z,452
2017-11-17T08:07:06.988Z,460
2017-11-17T08:08:08.406Z,464
2017-11-17T08:09:09.804Z,468
2017-11-17T08:10:11.228Z,472
2017-11-17T08:11:12.622Z,476
2017-11-17T08:12:14.026Z,480
2017-11-17T08:13:15.438Z,484
2017-11-17T08:14:16.834Z,484
2017-11-17T08:15:18.230Z,492
2017-11-17T08:16:19.629Z,496
2017-11-17T08:17:21.027Z,504
2017-11-17T08:18:22.424Z,500
2017-11-17T08:19:23.825Z,504
2017-11-17T08:20:25.218Z,504
2017-11-17T08:21:26.616Z,520
2017-11-17T08:22:28.054Z,508
2017-11-17T08:23:29.549Z,528
2017-11-17T08:24:31.434Z,532
2017-11-17T08:25:32.848Z,528
2017-11-17T08:26:34.255Z,540
2017-11-17T08:27:35.641Z,536
2017-11-17T08:28:37.085Z,548
2017-11-17T08:29:38.482Z,552
2017-11-17T08:30:39.885Z,548
2017-11-17T08:31:41.280Z,540
2017-11-17T08:32:42.683Z,548
2017-11-17T08:33:44.079Z,544
2017-11-17T08:34:45.476Z,548
2017-11-17T08:35:46.871Z,548
2017-11-17T08:36:48.283Z,552
2017-11-17T08:37:49.686Z,556
2017-11-17T08:38:51.079Z,556
2017-11-17T08:39:52.472Z,556
2017-11-17T08:40:53.889Z,564
2017-11-17T08:41:55.288Z,560
2017-11-17T08:42:56.688Z,564
2017-11-17T08:43:58.082Z,564
2017-11-17T08:44:59.480Z,568
2017-11-17T08:46:00.878Z,572
2017-11-17T08:47:02.270Z,568
2017-11-17T08:48:03.668Z,572
2017-11-17T08:49:05.065Z,572
2017-11-17T08:50:06.461Z,568
2017-11-17T08:51:07.860Z,572
2017-11-17T08:52:09.258Z,572
2017-11-17T08:53:10.651Z,564
2017-11-17T08:54:12.048Z,568
2017-11-17T08:55:13.437Z,584
2017-11-17T08:56:14.834Z,584
2017-11-17T08:57:16.236Z,584
2017-11-17T08:58:17.654Z,588
2017-11-17T08:59:19.056Z,592
2017-11-17T09:00:20.452Z,592
2017-11-17T09:01:21.851Z,592
2017-11-17T09:02:23.253Z,596
2017-11-17T09:03:24.657Z,592
2017-11-17T09:04:26.050Z,592
2017-11-17T09:05:27.462Z,596
2017-11-17T09:06:28.860Z,600
2017-11-17T09:07:30.259Z,600
2017-11-17T09:08:31.659Z,600
2017-11-17T09:09:33.056Z,600
2017-11-17T09:10:34.457Z,604
2017-11-17T09:11:35.850Z,604
2017-11-17T09:12:37.245Z,608
2017-11-17T09:13:38.652Z,608
2017-11-17T09:14:40.057Z,608
2017-11-17T09:15:41.456Z,624
2017-11-17T09:16:42.852Z,624
2017-11-17T09:17:44.250Z,624
2017-11-17T09:18:45.644Z,624
2017-11-17T09:19:47.041Z,628
2017-11-17T09:20:48.444Z,632
2017-11-17T09:21:49.839Z,632
2017-11-17T09:22:51.232Z,636
2017-11-17T09:23:52.627Z,636
2017-11-17T09:24:54.021Z,640
2017-11-17T09:25:55.430Z,640
2017-11-17T09:26:56.819Z,644
2017-11-17T09:27:58.219Z,644
2017-11-17T09:28:59.616Z,648
2017-11-17T09:30:01.011Z,648
2017-11-17T09:31:02.413Z,652
2017-11-17T09:32:03.822Z,652
2017-11-17T09:33:05.220Z,648
2017-11-17T09:34:06.617Z,652
2017-11-17T09:35:08.010Z,648
2017-11-17T09:36:09.409Z,652
2017-11-17T09:37:10.829Z,652
2017-11-17T09:38:12.224Z,652
2017-11-17T09:39:13.831Z,644
2017-11-17T09:40:15.260Z,648
2017-11-17T09:41:16.658Z,656
2017-11-17T09:42:18.051Z,664
2017-11-17T09:43:19.453Z,676
2017-11-17T09:44:20.849Z,676
2017-11-17T09:45:22.250Z,680
2017-11-17T09:46:23.663Z,680
2017-11-17T09:47:25.065Z,680
2017-11-17T09:48:26.465Z,680
2017-11-17T09:49:27.864Z,680
2017-11-17T09:50:29.261Z,684
2017-11-17T09:51:30.674Z,684
2017-11-17T09:52:32.059Z,684
2017-11-17T09:53:33.467Z,684
2017-11-17T09:54:34.862Z,688
2017-11-17T09:55:36.266Z,692
2017-11-17T09:56:37.664Z,696
2017-11-17T09:57:39.057Z,696
2017-11-17T09:58:40.455Z,700
2017-11-17T09:59:41.856Z,700
2017-11-17T10:00:43.243Z,700
2017-11-17T10:01:44.642Z,704
2017-11-17T10:02:46.035Z,700
2017-11-17T10:03:47.439Z,704
2017-11-17T10:04:48.842Z,704
2017-11-17T10:05:50.243Z,700
2017-11-17T10:06:51.647Z,704
2017-11-17T10:07:53.114Z,708
2017-11-17T10:08:54.505Z,708
2017-11-17T10:09:55.901Z,708
2017-11-17T10:10:57.366Z,708
2017-11-17T10:11:58.764Z,712
2017-11-17T10:13:00.159Z,712
2017-11-17T10:14:01.585Z,712
2017-11-17T10:15:02.966Z,712
2017-11-17T10:16:04.365Z,716
2017-11-17T10:17:05.762Z,716
2017-11-17T10:18:07.156Z,716
2017-11-17T10:19:08.555Z,716
2017-11-17T10:20:09.960Z,716
2017-11-17T10:21:11.355Z,716
2017-11-17T10:22:12.754Z,720
2017-11-17T10:23:14.152Z,720
2017-11-17T10:24:15.549Z,720
2017-11-17T10:25:17.025Z,724
2017-11-17T10:26:18.424Z,724
2017-11-17T10:27:19.825Z,724
2017-11-17T10:28:21.232Z,728
2017-11-17T10:29:22.643Z,728
2017-11-17T10:30:24.028Z,732
2017-11-17T10:31:25.432Z,728
2017-11-17T10:32:26.832Z,732
2017-11-17T10:33:28.243Z,728
2017-11-17T10:34:29.638Z,732
2017-11-17T10:35:31.066Z,732
2017-11-17T10:36:32.464Z,736
2017-11-17T10:37:33.864Z,732
2017-11-17T10:38:35.264Z,732
2017-11-17T10:39:36.667Z,732
2017-11-17T10:40:38.066Z,732
2017-11-17T10:41:39.461Z,736
2017-11-17T10:42:40.864Z,736
2017-11-17T10:43:42.270Z,736
2017-11-17T10:44:43.669Z,736
2017-11-17T10:45:45.100Z,736
2017-11-17T10:46:46.473Z,740
2017-11-17T10:47:47.876Z,740
2017-11-17T10:48:49.304Z,740
2017-11-17T10:49:50.707Z,740
2017-11-17T10:50:52.106Z,740
2017-11-17T10:51:53.579Z,740
2017-11-17T10:52:54.968Z,744
2017-11-17T10:53:56.393Z,744
2017-11-17T10:54:57.784Z,744
2017-11-17T10:55:59.180Z,744
2017-11-17T10:57:00.578Z,748
2017-11-17T10:58:02.003Z,748
2017-11-17T10:59:03.429Z,752
2017-11-17T11:00:04.827Z,748
2017-11-17T11:01:06.239Z,748
2017-11-17T11:02:07.624Z,752
2017-11-17T11:03:09.021Z,748
2017-11-17T11:04:10.424Z,752
2017-11-17T11:05:11.941Z,752
2017-11-17T11:06:13.347Z,752
2017-11-17T11:07:14.746Z,756
2017-11-17T11:08:16.146Z,752
2017-11-17T11:09:17.558Z,756
2017-11-17T11:10:18.963Z,756
2017-11-17T11:11:20.398Z,756
2017-11-17T11:12:21.797Z,756
2017-11-17T11:13:23.196Z,760
2017-11-17T11:14:24.604Z,756
2017-11-17T11:15:26.019Z,760
2017-11-17T11:16:27.432Z,760
2017-11-17T11:17:28.880Z,764
2017-11-17T11:18:30.280Z,764
2017-11-17T11:19:31.684Z,764
2017-11-17T11:20:33.113Z,768
2017-11-17T11:21:34.514Z,768
2017-11-17T11:22:35.915Z,768
2017-11-17T11:23:37.312Z,772
2017-11-17T11:24:38.723Z,776
2017-11-17T11:25:40.130Z,776
2017-11-17T11:26:41.548Z,776
2017-11-17T11:27:42.935Z,784
2017-11-17T11:28:44.339Z,784
2017-11-17T11:29:45.746Z,784
2017-11-17T11:30:47.144Z,788
2017-11-17T11:31:48.556Z,784
2017-11-17T11:32:50.006Z,788
2017-11-17T11:33:51.504Z,788
2017-11-17T11:34:52.915Z,792
2017-11-17T11:35:54.327Z,792
2017-11-17T11:36:55.737Z,792
2017-11-17T11:37:57.135Z,796
2017-11-17T11:38:58.534Z,796
2017-11-17T11:39:59.931Z,800
2017-11-17T11:41:01.334Z,800
2017-11-17T11:42:02.729Z,804
2017-11-17T11:43:04.127Z,808
2017-11-17T11:44:05.544Z,808
2017-11-17T11:45:06.973Z,812
2017-11-17T11:46:08.354Z,812
2017-11-17T11:47:09.796Z,812
2017-11-17T11:48:11.162Z,816
2017-11-17T11:49:12.554Z,820
2017-11-17T11:50:13.958Z,820
2017-11-17T11:51:15.394Z,820
2017-11-17T11:52:16.795Z,824
2017-11-17T11:53:18.194Z,824
2017-11-17T11:54:19.601Z,828
2017-11-17T11:55:21.005Z,828
2017-11-17T11:56:22.421Z,828
2017-11-17T11:57:23.817Z,832
2017-11-17T11:58:25.506Z,832
2017-11-17T11:59:26.933Z,828
2017-11-17T12:00:28.332Z,828
2017-11-17T12:01:29.745Z,828
2017-11-17T12:02:31.287Z,832
2017-11-17T12:03:32.701Z,832
2017-11-17T12:04:34.645Z,828
2017-11-17T12:05:36.025Z,832
2017-11-17T12:06:37.454Z,832
2017-11-17T12:07:38.863Z,828
2017-11-17T12:08:40.304Z,824
2017-11-17T12:09:41.702Z,820
2017-11-17T12:10:43.104Z,824
2017-11-17T12:11:44.505Z,836
2017-11-17T12:12:45.903Z,840
2017-11-17T12:13:47.657Z,848
2017-11-17T12:14:49.067Z,852
2017-11-17T12:15:50.539Z,848
2017-11-17T12:16:51.936Z,844
2017-11-17T12:17:53.343Z,848
2017-11-17T12:18:54.739Z,816
2017-11-17T12:19:56.378Z,864
2017-11-17T12:20:57.822Z,876
2017-11-17T12:21:59.225Z,896
2017-11-17T12:23:00.625Z,920
2017-11-17T12:24:02.033Z,932
2017-11-17T12:25:03.452Z,944
2017-11-17T12:26:04.858Z,940
2017-11-17T12:27:06.291Z,932
2017-11-17T12:28:07.687Z,924
2017-11-17T12:29:09.089Z,924
2017-11-17T12:30:10.488Z,928
2017-11-17T12:31:11.889Z,932
2017-11-17T12:32:13.320Z,924
2017-11-17T12:33:14.735Z,912
2017-11-17T12:34:16.142Z,892
2017-11-17T12:35:17.534Z,892
2017-11-17T12:36:18.945Z,896
2017-11-17T12:37:20.346Z,904
2017-11-17T12:38:21.751Z,904
2017-11-17T12:39:23.161Z,916
2017-11-17T12:40:24.561Z,928
2017-11-17T12:41:26.054Z,956
2017-11-17T12:42:27.450Z,964
2017-11-17T12:43:28.850Z,1040
2017-11-17T12:44:30.257Z,1100
2017-11-17T12:45:31.658Z,1124
2017-11-17T12:46:33.063Z,1116
2017-11-17T12:47:34.471Z,1088
2017-11-17T12:48:35.875Z,1060
2017-11-17T12:49:37.298Z,1040
2017-11-17T12:50:38.699Z,1004
2017-11-17T12:51:40.101Z,1024
2017-11-17T12:52:41.512Z,1080
2017-11-17T12:53:42.910Z,1052
2017-11-17T12:54:44.315Z,1016
2017-11-17T12:55:45.714Z,984
2017-11-17T12:56:47.110Z,968
2017-11-17T12:57:48.511Z,984
2017-11-17T12:58:49.911Z,980
2017-11-17T12:59:51.313Z,956
2017-11-17T13:00:52.871Z,960
2017-11-17T13:01:54.270Z,932
2017-11-17T13:02:55.733Z,908
2017-11-17T13:03:57.122Z,896
2017-11-17T13:04:58.746Z,884
2017-11-17T13:06:00.154Z,860
2017-11-17T13:07:01.563Z,820
2017-11-17T13:08:03.099Z,872
2017-11-17T13:09:04.498Z,852
2017-11-17T13:10:05.933Z,864
2017-11-17T13:11:07.364Z,900
2017-11-17T13:12:08.771Z,904
2017-11-17T13:13:10.374Z,848
2017-11-17T13:14:11.739Z,808
2017-11-17T13:15:13.259Z,848
2017-11-17T13:16:14.720Z,820
2017-11-17T13:17:16.137Z,820
2017-11-17T13:18:17.999Z,824
2017-11-17T13:19:19.396Z,832
2017-11-17T13:20:20.815Z,840
2017-11-17T13:21:22.218Z,836
2017-11-17T13:22:23.620Z,836
2017-11-17T13:23:25.021Z,828
2017-11-17T13:24:26.424Z,824
2017-11-17T13:25:27.819Z,824
2017-11-17T13:26:29.218Z,800
2017-11-17T13:27:30.763Z,800
2017-11-17T13:28:32.155Z,816
2017-11-17T13:29:33.562Z,848
2017-11-17T13:30:35.132Z,876
2017-11-17T13:31:36.536Z,876
2017-11-17T13:32:37.978Z,868
2017-11-17T13:33:39.721Z,868
2017-11-17T13:34:41.103Z,860
2017-11-17T13:35:42.541Z,860
2017-11-17T13:36:43.996Z,876
2017-11-17T13:37:45.400Z,900
2017-11-17T13:38:47.694Z,904
2017-11-17T13:39:49.120Z,888
2017-11-17T13:40:50.559Z,872
2017-11-17T13:41:51.993Z,840
2017-11-17T13:42:53.404Z,812
2017-11-17T13:43:54.819Z,796
2017-11-17T13:44:56.330Z,800
2017-11-17T13:45:57.794Z,800
2017-11-17T13:46:59.271Z,792
2017-11-17T13:48:00.794Z,800
2017-11-17T13:49:02.630Z,760
2017-11-17T13:50:04.189Z,700
2017-11-17T13:51:05.681Z,740
2017-11-17T13:52:07.171Z,740
2017-11-17T13:53:08.644Z,752
2017-11-17T13:54:10.384Z,768
2017-11-17T13:55:12.186Z,792
2017-11-17T13:56:13.734Z,820
2017-11-17T13:57:15.330Z,844
2017-11-17T13:58:16.806Z,884
2017-11-17T13:59:18.279Z,952
2017-11-17T14:00:19.758Z,1004
2017-11-17T14:01:21.228Z,1028
2017-11-17T14:02:22.701Z,1028
2017-11-17T14:03:24.175Z,1044
2017-11-17T14:04:25.678Z,1044
2017-11-17T14:05:27.193Z,1036
2017-11-17T14:06:28.635Z,1040
2017-11-17T14:07:30.131Z,1048
2017-11-17T14:08:31.659Z,1052
2017-11-17T14:09:33.166Z,1056
2017-11-17T14:10:35.019Z,1076
2017-11-17T14:11:36.606Z,1092
2017-11-17T14:12:38.154Z,1084
2017-11-17T14:13:39.770Z,1064
2017-11-17T14:14:41.304Z,1028
2017-11-17T14:15:42.877Z,964
2017-11-17T14:16:44.735Z,648
2017-11-17T14:17:46.314Z,672
2017-11-17T14:18:47.889Z,540
2017-11-17T14:19:49.468Z,532
2017-11-17T14:20:51.006Z,540
2017-11-17T14:21:53.326Z,524
2017-11-17T14:22:54.940Z,520
2017-11-17T14:23:56.424Z,528
2017-11-17T14:24:57.928Z,512
2017-11-17T14:25:59.449Z,508
2017-11-17T14:27:00.953Z,504
2017-11-17T14:28:02.841Z,504
2017-11-17T14:29:04.404Z,500
2017-11-17T14:30:06.034Z,492
2017-11-17T14:31:07.950Z,484
2017-11-17T14:32:09.377Z,476
2017-11-17T14:33:10.861Z,460